sensor_id;sensor_type;location;lat;lon;timestamp;temperature;humidity
69598;SHT31;70000;51.176;-115.568;2024-03-02T00:00:34;-7.80;80.99
69598;SHT31;70000;51.176;-115.568;2024-03-02T00:03:03;-7.79;80.92
69598;SHT31;70000;51.176;-115.568;2024-03-02T00:05:32;-7.89;80.55
69598;SHT31;70000;51.176;-115.568;2024-03-02T00:08:01;-7.93;80.71
69598;SHT31;70000;51.176;-115.568;2024-03-02T00:13:07;-7.91;80.62
69598;SHT31;70000;51.176;-115.568;2024-03-02T00:18:23;-7.91;80.20
69598;SHT31;70000;51.176;-115.568;2024-03-02T00:21:03;-7.90;80.16
69598;SHT31;70000;51.176;-115.568;2024-03-02T00:23:37;-7.87;80.13
69598;SHT31;70000;51.176;-115.568;2024-03-02T00:26:26;-7.80;80.14
69598;SHT31;70000;51.176;-115.568;2024-03-02T00:28:55;-7.79;79.70
69598;SHT31;70000;51.176;-115.568;2024-03-02T00:31:24;-7.78;79.58
69598;SHT31;70000;51.176;-115.568;2024-03-02T00:33:54;-7.76;79.36
69598;SHT31;70000;51.176;-115.568;2024-03-02T00:36:26;-7.76;79.20
69598;SHT31;70000;51.176;-115.568;2024-03-02T00:38:56;-7.80;78.60
69598;SHT31;70000;51.176;-115.568;2024-03-02T00:41:31;-7.82;78.40
69598;SHT31;70000;51.176;-115.568;2024-03-02T00:44:01;-7.78;78.63
69598;SHT31;70000;51.176;-115.568;2024-03-02T00:46:38;-7.74;78.81
69598;SHT31;70000;51.176;-115.568;2024-03-02T00:49:18;-7.71;78.91
69598;SHT31;70000;51.176;-115.568;2024-03-02T00:51:51;-7.73;78.47
69598;SHT31;70000;51.176;-115.568;2024-03-02T00:54:23;-7.75;78.48
69598;SHT31;70000;51.176;-115.568;2024-03-02T00:56:56;-7.81;77.91
69598;SHT31;70000;51.176;-115.568;2024-03-02T00:59:26;-7.88;77.55
69598;SHT31;70000;51.176;-115.568;2024-03-02T01:01:55;-7.97;77.44
69598;SHT31;70000;51.176;-115.568;2024-03-02T01:04:24;-8.04;77.16
69598;SHT31;70000;51.176;-115.568;2024-03-02T01:06:53;-8.07;77.10
69598;SHT31;70000;51.176;-115.568;2024-03-02T01:09:23;-8.10;76.96
69598;SHT31;70000;51.176;-115.568;2024-03-02T01:11:52;-8.12;77.13
69598;SHT31;70000;51.176;-115.568;2024-03-02T01:14:22;-8.15;76.76
69598;SHT31;70000;51.176;-115.568;2024-03-02T01:16:51;-8.20;76.83
69598;SHT31;70000;51.176;-115.568;2024-03-02T01:19:20;-8.23;76.86
69598;SHT31;70000;51.176;-115.568;2024-03-02T01:21:49;-8.30;76.71
69598;SHT31;70000;51.176;-115.568;2024-03-02T01:24:18;-8.36;76.70
69598;SHT31;70000;51.176;-115.568;2024-03-02T01:26:48;-8.44;76.56
69598;SHT31;70000;51.176;-115.568;2024-03-02T01:29:17;-8.47;76.97
69598;SHT31;70000;51.176;-115.568;2024-03-02T01:31:46;-8.51;76.79
69598;SHT31;70000;51.176;-115.568;2024-03-02T01:34:15;-8.55;77.06
69598;SHT31;70000;51.176;-115.568;2024-03-02T01:36:47;-8.61;76.79
69598;SHT31;70000;51.176;-115.568;2024-03-02T01:39:16;-8.67;76.81
69598;SHT31;70000;51.176;-115.568;2024-03-02T01:41:47;-8.74;76.50
69598;SHT31;70000;51.176;-115.568;2024-03-02T01:44:16;-8.81;76.35
69598;SHT31;70000;51.176;-115.568;2024-03-02T01:46:47;-8.87;76.41
69598;SHT31;70000;51.176;-115.568;2024-03-02T01:49:17;-8.88;76.62
69598;SHT31;70000;51.176;-115.568;2024-03-02T02:02:16;-9.11;76.61
69598;SHT31;70000;51.176;-115.568;2024-03-02T02:04:46;-9.12;76.89
69598;SHT31;70000;51.176;-115.568;2024-03-02T02:07:15;-9.15;77.09
69598;SHT31;70000;51.176;-115.568;2024-03-02T02:09:44;-9.22;78.22
69598;SHT31;70000;51.176;-115.568;2024-03-02T02:12:14;-9.23;78.80
69598;SHT31;70000;51.176;-115.568;2024-03-02T02:14:47;-9.23;79.09
69598;SHT31;70000;51.176;-115.568;2024-03-02T02:17:20;-9.22;79.27
69598;SHT31;70000;51.176;-115.568;2024-03-02T02:19:50;-9.25;78.97
69598;SHT31;70000;51.176;-115.568;2024-03-02T02:26:38;-9.28;78.97
69598;SHT31;70000;51.176;-115.568;2024-03-02T02:29:07;-9.30;78.87
69598;SHT31;70000;51.176;-115.568;2024-03-02T02:31:38;-9.30;78.89
69598;SHT31;70000;51.176;-115.568;2024-03-02T02:34:09;-9.30;78.75
69598;SHT31;70000;51.176;-115.568;2024-03-02T02:36:39;-9.37;78.33
69598;SHT31;70000;51.176;-115.568;2024-03-02T02:39:13;-9.37;78.46
69598;SHT31;70000;51.176;-115.568;2024-03-02T02:41:53;-9.40;78.20
69598;SHT31;70000;51.176;-115.568;2024-03-02T02:44:24;-9.45;78.01
69598;SHT31;70000;51.176;-115.568;2024-03-02T02:46:53;-9.51;77.66
69598;SHT31;70000;51.176;-115.568;2024-03-02T02:49:22;-9.57;77.41
69598;SHT31;70000;51.176;-115.568;2024-03-02T02:51:52;-9.63;77.23
69598;SHT31;70000;51.176;-115.568;2024-03-02T02:54:21;-9.69;77.30
69598;SHT31;70000;51.176;-115.568;2024-03-02T02:57:34;-9.76;77.00
69598;SHT31;70000;51.176;-115.568;2024-03-02T03:00:10;-9.77;77.36
69598;SHT31;70000;51.176;-115.568;2024-03-02T03:05:50;-9.74;77.46
69598;SHT31;70000;51.176;-115.568;2024-03-02T03:08:19;-9.76;77.13
69598;SHT31;70000;51.176;-115.568;2024-03-02T03:10:48;-9.78;77.02
69598;SHT31;70000;51.176;-115.568;2024-03-02T03:13:18;-9.79;76.93
69598;SHT31;70000;51.176;-115.568;2024-03-02T03:15:48;-9.78;77.10
69598;SHT31;70000;51.176;-115.568;2024-03-02T03:18:18;-9.81;76.89
69598;SHT31;70000;51.176;-115.568;2024-03-02T03:20:48;-9.75;77.43
69598;SHT31;70000;51.176;-115.568;2024-03-02T03:23:17;-9.75;77.22
69598;SHT31;70000;51.176;-115.568;2024-03-02T03:25:47;-9.78;76.98
69598;SHT31;70000;51.176;-115.568;2024-03-02T03:28:16;-9.77;77.07
69598;SHT31;70000;51.176;-115.568;2024-03-02T03:30:46;-9.73;77.33
69598;SHT31;70000;51.176;-115.568;2024-03-02T03:33:15;-9.78;76.82
69598;SHT31;70000;51.176;-115.568;2024-03-02T03:35:44;-9.82;76.60
69598;SHT31;70000;51.176;-115.568;2024-03-02T03:38:16;-9.78;77.18
69598;SHT31;70000;51.176;-115.568;2024-03-02T03:40:45;-9.73;77.48
69598;SHT31;70000;51.176;-115.568;2024-03-02T03:43:15;-9.73;77.24
69598;SHT31;70000;51.176;-115.568;2024-03-02T03:45:44;-9.74;77.07
69598;SHT31;70000;51.176;-115.568;2024-03-02T03:48:13;-9.78;76.92
69598;SHT31;70000;51.176;-115.568;2024-03-02T03:50:42;-9.81;76.83
69598;SHT31;70000;51.176;-115.568;2024-03-02T03:53:14;-9.84;76.51
69598;SHT31;70000;51.176;-115.568;2024-03-02T03:55:44;-9.86;76.65
69598;SHT31;70000;51.176;-115.568;2024-03-02T03:58:15;-9.87;76.53
69598;SHT31;70000;51.176;-115.568;2024-03-02T04:00:48;-9.91;76.40
69598;SHT31;70000;51.176;-115.568;2024-03-02T04:03:18;-9.91;76.55
69598;SHT31;70000;51.176;-115.568;2024-03-02T04:05:47;-9.92;76.39
69598;SHT31;70000;51.176;-115.568;2024-03-02T04:08:17;-9.97;76.11
69598;SHT31;70000;51.176;-115.568;2024-03-02T04:10:51;-10.03;75.80
69598;SHT31;70000;51.176;-115.568;2024-03-02T04:13:20;-10.07;75.99
69598;SHT31;70000;51.176;-115.568;2024-03-02T04:15:49;-10.06;76.25
69598;SHT31;70000;51.176;-115.568;2024-03-02T04:21:29;-10.08;76.20
69598;SHT31;70000;51.176;-115.568;2024-03-02T04:24:47;-10.06;76.26
69598;SHT31;70000;51.176;-115.568;2024-03-02T04:27:43;-10.12;75.87
69598;SHT31;70000;51.176;-115.568;2024-03-02T04:30:12;-10.15;76.03
69598;SHT31;70000;51.176;-115.568;2024-03-02T04:32:47;-10.17;76.06
69598;SHT31;70000;51.176;-115.568;2024-03-02T04:35:17;-10.16;76.33
69598;SHT31;70000;51.176;-115.568;2024-03-02T04:37:46;-10.16;76.27
69598;SHT31;70000;51.176;-115.568;2024-03-02T04:40:17;-10.21;76.10
69598;SHT31;70000;51.176;-115.568;2024-03-02T04:42:47;-10.26;76.09
69598;SHT31;70000;51.176;-115.568;2024-03-02T04:50:07;-10.40;76.15
69598;SHT31;70000;51.176;-115.568;2024-03-02T04:52:37;-10.41;76.24
69598;SHT31;70000;51.176;-115.568;2024-03-02T04:55:06;-10.43;76.23
69598;SHT31;70000;51.176;-115.568;2024-03-02T04:57:44;-10.45;76.16
69598;SHT31;70000;51.176;-115.568;2024-03-02T05:00:13;-10.50;76.02
69598;SHT31;70000;51.176;-115.568;2024-03-02T05:06:01;-10.54;76.14
69598;SHT31;70000;51.176;-115.568;2024-03-02T05:08:30;-10.55;76.23
69598;SHT31;70000;51.176;-115.568;2024-03-02T05:11:01;-10.58;76.28
69598;SHT31;70000;51.176;-115.568;2024-03-02T05:13:50;-10.60;76.41
69598;SHT31;70000;51.176;-115.568;2024-03-02T05:16:19;-10.64;76.75
69598;SHT31;70000;51.176;-115.568;2024-03-02T05:25:34;-10.70;76.83
69598;SHT31;70000;51.176;-115.568;2024-03-02T05:28:06;-10.72;76.67
69598;SHT31;70000;51.176;-115.568;2024-03-02T05:30:36;-10.73;76.72
69598;SHT31;70000;51.176;-115.568;2024-03-02T05:33:06;-10.71;76.84
69598;SHT31;70000;51.176;-115.568;2024-03-02T05:35:35;-10.69;76.89
69598;SHT31;70000;51.176;-115.568;2024-03-02T05:38:07;-10.67;76.93
69598;SHT31;70000;51.176;-115.568;2024-03-02T05:40:37;-10.67;76.80
69598;SHT31;70000;51.176;-115.568;2024-03-02T05:43:06;-10.67;76.84
69598;SHT31;70000;51.176;-115.568;2024-03-02T05:45:57;-10.66;76.93
69598;SHT31;70000;51.176;-115.568;2024-03-02T05:48:31;-10.66;76.80
69598;SHT31;70000;51.176;-115.568;2024-03-02T05:51:02;-10.67;76.76
69598;SHT31;70000;51.176;-115.568;2024-03-02T05:53:36;-10.66;76.82
69598;SHT31;70000;51.176;-115.568;2024-03-02T05:56:06;-10.67;76.73
69598;SHT31;70000;51.176;-115.568;2024-03-02T06:01:21;-10.69;76.58
69598;SHT31;70000;51.176;-115.568;2024-03-02T06:03:56;-10.72;76.50
69598;SHT31;70000;51.176;-115.568;2024-03-02T06:06:27;-10.75;76.48
69598;SHT31;70000;51.176;-115.568;2024-03-02T06:08:56;-10.75;76.71
69598;SHT31;70000;51.176;-115.568;2024-03-02T06:11:26;-10.73;76.92
69598;SHT31;70000;51.176;-115.568;2024-03-02T06:13:55;-10.74;76.92
69598;SHT31;70000;51.176;-115.568;2024-03-02T06:16:24;-10.74;76.90
69598;SHT31;70000;51.176;-115.568;2024-03-02T06:18:53;-10.77;76.85
69598;SHT31;70000;51.176;-115.568;2024-03-02T06:21:22;-10.75;76.95
69598;SHT31;70000;51.176;-115.568;2024-03-02T06:23:55;-10.75;76.95
69598;SHT31;70000;51.176;-115.568;2024-03-02T06:26:24;-10.75;76.85
69598;SHT31;70000;51.176;-115.568;2024-03-02T06:28:54;-10.77;76.82
69598;SHT31;70000;51.176;-115.568;2024-03-02T06:31:23;-10.78;76.77
69598;SHT31;70000;51.176;-115.568;2024-03-02T06:33:55;-10.75;77.09
69598;SHT31;70000;51.176;-115.568;2024-03-02T06:36:25;-10.73;77.00
69598;SHT31;70000;51.176;-115.568;2024-03-02T06:41:24;-10.73;77.06
69598;SHT31;70000;51.176;-115.568;2024-03-02T06:43:54;-10.72;77.17
69598;SHT31;70000;51.176;-115.568;2024-03-02T06:46:27;-10.69;77.31
69598;SHT31;70000;51.176;-115.568;2024-03-02T06:49:01;-10.71;77.12
69598;SHT31;70000;51.176;-115.568;2024-03-02T06:51:33;-10.71;77.26
69598;SHT31;70000;51.176;-115.568;2024-03-02T06:54:03;-10.71;77.04
69598;SHT31;70000;51.176;-115.568;2024-03-02T06:56:34;-10.73;76.91
69598;SHT31;70000;51.176;-115.568;2024-03-02T06:59:03;-10.76;76.92
69598;SHT31;70000;51.176;-115.568;2024-03-02T07:01:32;-10.76;77.16
69598;SHT31;70000;51.176;-115.568;2024-03-02T07:04:02;-10.74;77.64
69598;SHT31;70000;51.176;-115.568;2024-03-02T07:06:33;-10.74;77.76
69598;SHT31;70000;51.176;-115.568;2024-03-02T07:09:03;-10.75;77.82
69598;SHT31;70000;51.176;-115.568;2024-03-02T07:11:32;-10.75;77.81
69598;SHT31;70000;51.176;-115.568;2024-03-02T07:14:02;-10.74;78.31
69598;SHT31;70000;51.176;-115.568;2024-03-02T07:16:31;-10.72;78.82
69598;SHT31;70000;51.176;-115.568;2024-03-02T07:19:01;-10.72;78.86
69598;SHT31;70000;51.176;-115.568;2024-03-02T07:21:31;-10.75;78.71
69598;SHT31;70000;51.176;-115.568;2024-03-02T07:24:02;-10.80;78.67
69598;SHT31;70000;51.176;-115.568;2024-03-02T07:26:32;-10.81;78.76
69598;SHT31;70000;51.176;-115.568;2024-03-02T07:29:04;-10.86;78.56
69598;SHT31;70000;51.176;-115.568;2024-03-02T07:31:33;-10.89;78.93
69598;SHT31;70000;51.176;-115.568;2024-03-02T07:34:03;-10.91;79.69
69598;SHT31;70000;51.176;-115.568;2024-03-02T07:36:32;-10.94;79.93
69598;SHT31;70000;51.176;-115.568;2024-03-02T07:39:01;-10.96;80.38
69598;SHT31;70000;51.176;-115.568;2024-03-02T07:41:30;-10.93;80.70
69598;SHT31;70000;51.176;-115.568;2024-03-02T07:47:07;-10.98;80.96
69598;SHT31;70000;51.176;-115.568;2024-03-02T07:49:36;-10.94;81.15
69598;SHT31;70000;51.176;-115.568;2024-03-02T07:52:05;-10.94;81.01
69598;SHT31;70000;51.176;-115.568;2024-03-02T07:54:35;-10.95;80.85
69598;SHT31;70000;51.176;-115.568;2024-03-02T07:57:04;-10.93;80.87
69598;SHT31;70000;51.176;-115.568;2024-03-02T07:59:35;-10.93;80.67
69598;SHT31;70000;51.176;-115.568;2024-03-02T08:02:04;-10.95;80.74
69598;SHT31;70000;51.176;-115.568;2024-03-02T08:04:34;-10.96;80.87
69598;SHT31;70000;51.176;-115.568;2024-03-02T08:07:44;-10.94;80.98
69598;SHT31;70000;51.176;-115.568;2024-03-02T08:10:13;-10.95;81.00
69598;SHT31;70000;51.176;-115.568;2024-03-02T08:12:42;-10.94;81.65
69598;SHT31;70000;51.176;-115.568;2024-03-02T08:15:10;-10.90;81.99
69598;SHT31;70000;51.176;-115.568;2024-03-02T08:17:41;-10.88;82.00
69598;SHT31;70000;51.176;-115.568;2024-03-02T08:20:15;-10.86;82.04
69598;SHT31;70000;51.176;-115.568;2024-03-02T08:22:44;-10.86;81.90
69598;SHT31;70000;51.176;-115.568;2024-03-02T08:25:14;-10.88;81.74
69598;SHT31;70000;51.176;-115.568;2024-03-02T08:27:43;-10.88;81.75
69598;SHT31;70000;51.176;-115.568;2024-03-02T08:30:12;-10.87;81.71
69598;SHT31;70000;51.176;-115.568;2024-03-02T08:32:41;-10.85;81.69
69598;SHT31;70000;51.176;-115.568;2024-03-02T08:35:09;-10.89;81.40
69598;SHT31;70000;51.176;-115.568;2024-03-02T08:37:39;-10.89;81.38
69598;SHT31;70000;51.176;-115.568;2024-03-02T08:40:10;-10.89;81.35
69598;SHT31;70000;51.176;-115.568;2024-03-02T08:42:44;-10.91;81.17
69598;SHT31;70000;51.176;-115.568;2024-03-02T08:45:13;-10.93;81.06
69598;SHT31;70000;51.176;-115.568;2024-03-02T08:47:42;-10.95;80.90
69598;SHT31;70000;51.176;-115.568;2024-03-02T08:50:11;-10.97;80.86
69598;SHT31;70000;51.176;-115.568;2024-03-02T08:52:39;-10.97;80.84
69598;SHT31;70000;51.176;-115.568;2024-03-02T08:55:07;-10.96;80.88
69598;SHT31;70000;51.176;-115.568;2024-03-02T08:57:38;-10.98;80.74
69598;SHT31;70000;51.176;-115.568;2024-03-02T09:00:07;-11.03;80.81
69598;SHT31;70000;51.176;-115.568;2024-03-02T09:02:36;-11.02;81.50
69598;SHT31;70000;51.176;-115.568;2024-03-02T09:05:09;-11.02;81.43
69598;SHT31;70000;51.176;-115.568;2024-03-02T09:07:37;-11.10;81.24
69598;SHT31;70000;51.176;-115.568;2024-03-02T09:10:06;-11.17;81.72
69598;SHT31;70000;51.176;-115.568;2024-03-02T09:12:36;-11.18;82.12
69598;SHT31;70000;51.176;-115.568;2024-03-02T09:15:06;-11.23;82.03
69598;SHT31;70000;51.176;-115.568;2024-03-02T09:17:35;-11.27;82.07
69598;SHT31;70000;51.176;-115.568;2024-03-02T09:20:04;-11.31;82.31
69598;SHT31;70000;51.176;-115.568;2024-03-02T09:22:33;-11.26;82.86
69598;SHT31;70000;51.176;-115.568;2024-03-02T09:25:03;-11.17;83.20
69598;SHT31;70000;51.176;-115.568;2024-03-02T09:27:37;-11.22;83.02
69598;SHT31;70000;51.176;-115.568;2024-03-02T09:30:26;-11.27;83.27
69598;SHT31;70000;51.176;-115.568;2024-03-02T09:32:55;-11.30;83.31
69598;SHT31;70000;51.176;-115.568;2024-03-02T09:35:27;-11.32;83.42
69598;SHT31;70000;51.176;-115.568;2024-03-02T09:37:57;-11.32;83.56
69598;SHT31;70000;51.176;-115.568;2024-03-02T09:40:26;-11.31;83.63
69598;SHT31;70000;51.176;-115.568;2024-03-02T09:42:56;-11.32;83.59
69598;SHT31;70000;51.176;-115.568;2024-03-02T09:45:26;-11.35;83.52
69598;SHT31;70000;51.176;-115.568;2024-03-02T09:47:55;-11.37;83.40
69598;SHT31;70000;51.176;-115.568;2024-03-02T09:50:24;-11.38;83.40
69598;SHT31;70000;51.176;-115.568;2024-03-02T09:52:54;-11.35;83.47
69598;SHT31;70000;51.176;-115.568;2024-03-02T09:55:23;-11.34;83.35
69598;SHT31;70000;51.176;-115.568;2024-03-02T09:57:53;-11.36;83.02
69598;SHT31;70000;51.176;-115.568;2024-03-02T10:00:22;-11.36;82.98
69598;SHT31;70000;51.176;-115.568;2024-03-02T10:02:56;-11.33;83.03
69598;SHT31;70000;51.176;-115.568;2024-03-02T10:05:26;-11.37;82.68
69598;SHT31;70000;51.176;-115.568;2024-03-02T10:07:59;-11.38;82.61
69598;SHT31;70000;51.176;-115.568;2024-03-02T10:10:38;-11.37;82.62
69598;SHT31;70000;51.176;-115.568;2024-03-02T10:13:11;-11.35;82.49
69598;SHT31;70000;51.176;-115.568;2024-03-02T10:15:42;-11.38;82.35
69598;SHT31;70000;51.176;-115.568;2024-03-02T10:18:11;-11.35;82.65
69598;SHT31;70000;51.176;-115.568;2024-03-02T10:20:43;-11.38;82.30
69598;SHT31;70000;51.176;-115.568;2024-03-02T10:23:12;-11.43;82.38
69598;SHT31;70000;51.176;-115.568;2024-03-02T10:25:44;-11.41;82.60
69598;SHT31;70000;51.176;-115.568;2024-03-02T10:28:23;-11.43;82.42
69598;SHT31;70000;51.176;-115.568;2024-03-02T10:33:21;-11.52;83.57
69598;SHT31;70000;51.176;-115.568;2024-03-02T10:35:52;-11.52;84.34
69598;SHT31;70000;51.176;-115.568;2024-03-02T10:38:26;-11.53;84.53
69598;SHT31;70000;51.176;-115.568;2024-03-02T10:40:57;-11.52;84.96
69598;SHT31;70000;51.176;-115.568;2024-03-02T10:43:28;-11.52;85.13
69598;SHT31;70000;51.176;-115.568;2024-03-02T10:46:00;-11.51;85.26
69598;SHT31;70000;51.176;-115.568;2024-03-02T10:48:30;-11.53;85.21
69598;SHT31;70000;51.176;-115.568;2024-03-02T10:51:03;-11.59;85.11
69598;SHT31;70000;51.176;-115.568;2024-03-02T10:53:32;-11.63;85.26
69598;SHT31;70000;51.176;-115.568;2024-03-02T10:56:04;-11.66;85.37
69598;SHT31;70000;51.176;-115.568;2024-03-02T10:58:40;-11.71;86.09
69598;SHT31;70000;51.176;-115.568;2024-03-02T11:01:10;-11.71;86.53
69598;SHT31;70000;51.176;-115.568;2024-03-02T11:03:41;-11.73;86.56
69598;SHT31;70000;51.176;-115.568;2024-03-02T11:06:12;-11.79;86.50
69598;SHT31;70000;51.176;-115.568;2024-03-02T11:08:42;-11.86;86.46
69598;SHT31;70000;51.176;-115.568;2024-03-02T11:11:18;-11.90;86.50
69598;SHT31;70000;51.176;-115.568;2024-03-02T11:13:58;-11.93;86.54
69598;SHT31;70000;51.176;-115.568;2024-03-02T11:16:55;-11.97;86.48
69598;SHT31;70000;51.176;-115.568;2024-03-02T11:19:26;-11.98;86.50
69598;SHT31;70000;51.176;-115.568;2024-03-02T11:21:56;-11.98;86.51
69598;SHT31;70000;51.176;-115.568;2024-03-02T11:27:05;-11.93;86.63
69598;SHT31;70000;51.176;-115.568;2024-03-02T11:29:44;-11.94;86.59
69598;SHT31;70000;51.176;-115.568;2024-03-02T11:32:14;-11.97;86.47
69598;SHT31;70000;51.176;-115.568;2024-03-02T11:34:51;-12.00;86.47
69598;SHT31;70000;51.176;-115.568;2024-03-02T11:37:20;-11.98;86.52
69598;SHT31;70000;51.176;-115.568;2024-03-02T11:39:51;-12.00;86.50
69598;SHT31;70000;51.176;-115.568;2024-03-02T11:42:21;-11.99;86.51
69598;SHT31;70000;51.176;-115.568;2024-03-02T11:44:50;-11.97;86.58
69598;SHT31;70000;51.176;-115.568;2024-03-02T11:47:19;-11.99;86.50
69598;SHT31;70000;51.176;-115.568;2024-03-02T11:49:51;-12.00;86.53
69598;SHT31;70000;51.176;-115.568;2024-03-02T11:52:20;-12.06;86.32
69598;SHT31;70000;51.176;-115.568;2024-03-02T11:54:52;-12.10;86.18
69598;SHT31;70000;51.176;-115.568;2024-03-02T11:57:22;-12.08;86.41
69598;SHT31;70000;51.176;-115.568;2024-03-02T11:59:51;-12.05;86.50
69598;SHT31;70000;51.176;-115.568;2024-03-02T12:02:21;-12.07;86.35
69598;SHT31;70000;51.176;-115.568;2024-03-02T12:04:50;-12.09;86.41
69598;SHT31;70000;51.176;-115.568;2024-03-02T12:07:23;-12.09;86.39
69598;SHT31;70000;51.176;-115.568;2024-03-02T12:10:01;-12.09;86.36
69598;SHT31;70000;51.176;-115.568;2024-03-02T12:12:31;-12.08;86.47
69598;SHT31;70000;51.176;-115.568;2024-03-02T12:15:00;-12.11;86.32
69598;SHT31;70000;51.176;-115.568;2024-03-02T12:17:30;-12.16;86.20
69598;SHT31;70000;51.176;-115.568;2024-03-02T12:20:00;-12.18;86.25
69598;SHT31;70000;51.176;-115.568;2024-03-02T12:22:31;-12.17;86.36
69598;SHT31;70000;51.176;-115.568;2024-03-02T12:25:00;-12.13;86.47
69598;SHT31;70000;51.176;-115.568;2024-03-02T12:27:30;-12.13;86.36
69598;SHT31;70000;51.176;-115.568;2024-03-02T12:30:00;-12.14;86.29
69598;SHT31;70000;51.176;-115.568;2024-03-02T12:32:29;-12.19;86.16
69598;SHT31;70000;51.176;-115.568;2024-03-02T12:34:58;-12.26;85.95
69598;SHT31;70000;51.176;-115.568;2024-03-02T12:37:28;-12.30;86.01
69598;SHT31;70000;51.176;-115.568;2024-03-02T12:39:57;-12.31;86.02
69598;SHT31;70000;51.176;-115.568;2024-03-02T12:42:27;-12.32;86.03
69598;SHT31;70000;51.176;-115.568;2024-03-02T12:44:56;-12.33;86.00
69598;SHT31;70000;51.176;-115.568;2024-03-02T12:47:25;-12.31;86.08
69598;SHT31;70000;51.176;-115.568;2024-03-02T12:49:54;-12.30;86.17
69598;SHT31;70000;51.176;-115.568;2024-03-02T12:52:25;-12.32;86.07
69598;SHT31;70000;51.176;-115.568;2024-03-02T12:54:54;-12.35;85.98
69598;SHT31;70000;51.176;-115.568;2024-03-02T12:57:26;-12.38;85.98
69598;SHT31;70000;51.176;-115.568;2024-03-02T13:00:00;-12.39;86.02
69598;SHT31;70000;51.176;-115.568;2024-03-02T13:02:41;-12.38;86.03
69598;SHT31;70000;51.176;-115.568;2024-03-02T13:05:10;-12.36;86.14
69598;SHT31;70000;51.176;-115.568;2024-03-02T13:07:39;-12.39;86.01
69598;SHT31;70000;51.176;-115.568;2024-03-02T13:10:09;-12.41;86.07
69598;SHT31;70000;51.176;-115.568;2024-03-02T13:12:39;-12.43;86.00
69598;SHT31;70000;51.176;-115.568;2024-03-02T13:15:08;-12.46;85.92
69598;SHT31;70000;51.176;-115.568;2024-03-02T13:17:44;-12.48;85.99
69598;SHT31;70000;51.176;-115.568;2024-03-02T13:20:33;-12.45;86.16
69598;SHT31;70000;51.176;-115.568;2024-03-02T13:23:03;-12.44;86.04
69598;SHT31;70000;51.176;-115.568;2024-03-02T13:25:32;-12.40;86.15
69598;SHT31;70000;51.176;-115.568;2024-03-02T13:28:01;-12.44;85.85
69598;SHT31;70000;51.176;-115.568;2024-03-02T13:33:38;-12.52;85.84
69598;SHT31;70000;51.176;-115.568;2024-03-02T13:36:08;-12.50;85.94
69598;SHT31;70000;51.176;-115.568;2024-03-02T13:39:16;-12.48;85.94
69598;SHT31;70000;51.176;-115.568;2024-03-02T13:41:44;-12.47;86.02
69598;SHT31;70000;51.176;-115.568;2024-03-02T13:44:19;-12.47;86.03
69598;SHT31;70000;51.176;-115.568;2024-03-02T13:46:48;-12.47;85.99
69598;SHT31;70000;51.176;-115.568;2024-03-02T13:49:18;-12.44;86.14
69598;SHT31;70000;51.176;-115.568;2024-03-02T13:51:46;-12.41;86.20
69598;SHT31;70000;51.176;-115.568;2024-03-02T13:54:15;-12.35;86.27
69598;SHT31;70000;51.176;-115.568;2024-03-02T13:56:43;-12.37;86.10
69598;SHT31;70000;51.176;-115.568;2024-03-02T13:59:11;-12.34;86.25
69598;SHT31;70000;51.176;-115.568;2024-03-02T14:01:40;-12.30;86.28
69598;SHT31;70000;51.176;-115.568;2024-03-02T14:04:11;-12.35;86.05
69598;SHT31;70000;51.176;-115.568;2024-03-02T14:06:40;-12.39;86.03
69598;SHT31;70000;51.176;-115.568;2024-03-02T14:09:10;-12.37;86.17
69598;SHT31;70000;51.176;-115.568;2024-03-02T14:11:39;-12.38;86.08
69598;SHT31;70000;51.176;-115.568;2024-03-02T14:14:07;-12.41;85.99
69598;SHT31;70000;51.176;-115.568;2024-03-02T14:16:36;-12.46;85.89
69598;SHT31;70000;51.176;-115.568;2024-03-02T14:19:04;-12.45;85.94
69598;SHT31;70000;51.176;-115.568;2024-03-02T14:21:33;-12.41;86.09
69598;SHT31;70000;51.176;-115.568;2024-03-02T14:24:02;-12.41;85.93
69598;SHT31;70000;51.176;-115.568;2024-03-02T14:26:36;-12.45;85.81
69598;SHT31;70000;51.176;-115.568;2024-03-02T14:29:05;-12.45;85.90
69598;SHT31;70000;51.176;-115.568;2024-03-02T14:31:34;-12.41;85.99
69598;SHT31;70000;51.176;-115.568;2024-03-02T14:34:03;-12.37;86.06
69598;SHT31;70000;51.176;-115.568;2024-03-02T14:36:31;-12.42;85.76
69598;SHT31;70000;51.176;-115.568;2024-03-02T14:39:01;-12.54;85.40
69598;SHT31;70000;51.176;-115.568;2024-03-02T14:41:31;-12.56;85.60
69598;SHT31;70000;51.176;-115.568;2024-03-02T14:44:00;-12.59;85.55
69598;SHT31;70000;51.176;-115.568;2024-03-02T14:46:31;-12.62;85.59
69598;SHT31;70000;51.176;-115.568;2024-03-02T14:49:00;-12.61;85.71
69598;SHT31;70000;51.176;-115.568;2024-03-02T14:51:29;-12.60;85.78
69598;SHT31;70000;51.176;-115.568;2024-03-02T14:53:58;-12.59;85.86
69598;SHT31;70000;51.176;-115.568;2024-03-02T14:56:26;-12.60;85.67
69598;SHT31;70000;51.176;-115.568;2024-03-02T14:58:55;-12.69;85.43
69598;SHT31;70000;51.176;-115.568;2024-03-02T15:04:13;-12.74;85.55
69598;SHT31;70000;51.176;-115.568;2024-03-02T15:06:47;-12.75;85.56
69598;SHT31;70000;51.176;-115.568;2024-03-02T15:09:17;-12.73;85.66
69598;SHT31;70000;51.176;-115.568;2024-03-02T15:18:52;-12.75;85.37
69598;SHT31;70000;51.176;-115.568;2024-03-02T15:21:22;-12.80;85.13
69598;SHT31;70000;51.176;-115.568;2024-03-02T15:23:51;-12.81;85.29
69598;SHT31;70000;51.176;-115.568;2024-03-02T15:26:20;-12.81;85.38
69598;SHT31;70000;51.176;-115.568;2024-03-02T15:28:48;-12.81;85.40
69598;SHT31;70000;51.176;-115.568;2024-03-02T15:31:17;-12.84;85.26
69598;SHT31;70000;51.176;-115.568;2024-03-02T15:33:45;-12.84;85.33
69598;SHT31;70000;51.176;-115.568;2024-03-02T15:36:15;-12.87;85.26
69598;SHT31;70000;51.176;-115.568;2024-03-02T15:38:47;-12.94;85.43
69598;SHT31;70000;51.176;-115.568;2024-03-02T15:43:38;-13.06;85.93
69598;SHT31;70000;51.176;-115.568;2024-03-02T15:46:10;-13.07;86.27
69598;SHT31;70000;51.176;-115.568;2024-03-02T15:48:39;-13.09;86.53
69598;SHT31;70000;51.176;-115.568;2024-03-02T15:51:09;-13.07;86.90
69598;SHT31;70000;51.176;-115.568;2024-03-02T15:53:38;-13.03;87.05
69598;SHT31;70000;51.176;-115.568;2024-03-02T15:56:07;-13.03;87.05
69598;SHT31;70000;51.176;-115.568;2024-03-02T15:58:38;-12.97;87.19
69598;SHT31;70000;51.176;-115.568;2024-03-02T16:01:07;-12.88;87.32
69598;SHT31;70000;51.176;-115.568;2024-03-02T16:03:37;-12.77;87.44
69598;SHT31;70000;51.176;-115.568;2024-03-02T16:06:06;-12.69;87.40
69598;SHT31;70000;51.176;-115.568;2024-03-02T16:09:16;-12.65;87.46
69598;SHT31;70000;51.176;-115.568;2024-03-02T16:11:44;-12.58;87.50